Linrose, Idaho
Current Conditions -  °F | °C
As of 7:51 PM on Thursday 20 Nov 2014 (Local Time) from KLGU Reporting Station
Overcast Overcast  
Wind Chill: 34°   Ceiling: 7000
Heat Index: 34°   Visibility: 10mi
Dew Point: 26°   Wind: 0mph
Humidity: 73%   Direction: NA
Pressure: 30.06"   Gusts: NA
Location:  42.0429°N, 112.014°W
Report Text: KLGU 210251Z AUTO 00000KT 10SM OVC070 01/M03 A3006 RMK AO2 SLP198 T00111033 56001
Loading
Personal Weather Stations






























Interactive Weather Map New forecast layout! Learn more

10-Day Weather Forecast

Advertisements
Track Severe Weather on mobile